sensor_id;sensor_type;location;lat;lon;timestamp;P1;durP1;ratioP1;P2;durP2;ratioP2
47599;SDS011;33323;52.124;6.018;2022-12-18T00:01:25;59.05;;;22.73;;
47599;SDS011;33323;52.124;6.018;2022-12-18T00:03:57;58.92;;;21.27;;
47599;SDS011;33323;52.124;6.018;2022-12-18T00:06:25;49.30;;;21.30;;
47599;SDS011;33323;52.124;6.018;2022-12-18T00:08:55;50.55;;;21.85;;
47599;SDS011;33323;52.124;6.018;2022-12-18T00:11:25;56.03;;;21.58;;
47599;SDS011;33323;52.124;6.018;2022-12-18T00:13:56;56.13;;;20.88;;
47599;SDS011;33323;52.124;6.018;2022-12-18T00:16:25;59.17;;;23.10;;
47599;SDS011;33323;52.124;6.018;2022-12-18T00:18:57;44.60;;;19.25;;
47599;SDS011;33323;52.124;6.018;2022-12-18T00:21:26;48.00;;;20.65;;
47599;SDS011;33323;52.124;6.018;2022-12-18T00:23:55;46.30;;;19.30;;
47599;SDS011;33323;52.124;6.018;2022-12-18T00:26:23;53.78;;;19.00;;
47599;SDS011;33323;52.124;6.018;2022-12-18T00:28:59;39.88;;;14.65;;
47599;SDS011;33323;52.124;6.018;2022-12-18T00:31:37;59.97;;;20.77;;
47599;SDS011;33323;52.124;6.018;2022-12-18T00:34:04;61.92;;;19.55;;
47599;SDS011;33323;52.124;6.018;2022-12-18T00:36:33;67.88;;;25.42;;
47599;SDS011;33323;52.124;6.018;2022-12-18T00:39:01;50.42;;;21.63;;
47599;SDS011;33323;52.124;6.018;2022-12-18T00:41:30;61.80;;;22.60;;
47599;SDS011;33323;52.124;6.018;2022-12-18T00:44:17;68.70;;;23.00;;
47599;SDS011;33323;52.124;6.018;2022-12-18T00:46:45;52.72;;;19.10;;
47599;SDS011;33323;52.124;6.018;2022-12-18T00:49:14;60.45;;;20.83;;
47599;SDS011;33323;52.124;6.018;2022-12-18T00:51:46;48.15;;;19.80;;
47599;SDS011;33323;52.124;6.018;2022-12-18T00:54:14;54.42;;;23.15;;
47599;SDS011;33323;52.124;6.018;2022-12-18T00:56:42;56.58;;;20.77;;
47599;SDS011;33323;52.124;6.018;2022-12-18T00:59:16;73.15;;;23.92;;
47599;SDS011;33323;52.124;6.018;2022-12-18T01:01:44;62.72;;;23.25;;
47599;SDS011;33323;52.124;6.018;2022-12-18T01:04:12;50.80;;;20.35;;
47599;SDS011;33323;52.124;6.018;2022-12-18T01:06:43;57.72;;;24.05;;
47599;SDS011;33323;52.124;6.018;2022-12-18T01:09:10;62.38;;;23.90;;
47599;SDS011;33323;52.124;6.018;2022-12-18T01:11:38;52.80;;;18.80;;
47599;SDS011;33323;52.124;6.018;2022-12-18T01:14:05;60.80;;;21.73;;
47599;SDS011;33323;52.124;6.018;2022-12-18T01:16:32;59.20;;;21.40;;
47599;SDS011;33323;52.124;6.018;2022-12-18T01:18:59;50.58;;;21.65;;
47599;SDS011;33323;52.124;6.018;2022-12-18T01:21:26;33.35;;;13.90;;
47599;SDS011;33323;52.124;6.018;2022-12-18T01:23:54;50.25;;;20.70;;
47599;SDS011;33323;52.124;6.018;2022-12-18T01:26:23;58.58;;;21.65;;
47599;SDS011;33323;52.124;6.018;2022-12-18T01:28:53;46.17;;;18.52;;
47599;SDS011;33323;52.124;6.018;2022-12-18T01:31:23;39.75;;;17.42;;
47599;SDS011;33323;52.124;6.018;2022-12-18T01:33:57;58.08;;;19.65;;
47599;SDS011;33323;52.124;6.018;2022-12-18T01:36:27;37.90;;;17.77;;
47599;SDS011;33323;52.124;6.018;2022-12-18T01:38:58;52.70;;;19.50;;
47599;SDS011;33323;52.124;6.018;2022-12-18T01:41:27;56.67;;;20.58;;
47599;SDS011;33323;52.124;6.018;2022-12-18T01:47:43;54.92;;;22.23;;
47599;SDS011;33323;52.124;6.018;2022-12-18T01:55:52;48.58;;;21.00;;
47599;SDS011;33323;52.124;6.018;2022-12-18T02:00:59;49.55;;;19.25;;
47599;SDS011;33323;52.124;6.018;2022-12-18T02:03:26;46.95;;;18.75;;
47599;SDS011;33323;52.124;6.018;2022-12-18T02:06:06;46.35;;;20.40;;
47599;SDS011;33323;52.124;6.018;2022-12-18T02:08:50;49.70;;;23.95;;
47599;SDS011;33323;52.124;6.018;2022-12-18T02:15:13;44.25;;;19.83;;
47599;SDS011;33323;52.124;6.018;2022-12-18T02:17:57;45.72;;;17.58;;
47599;SDS011;33323;52.124;6.018;2022-12-18T02:20:52;45.95;;;19.75;;
47599;SDS011;33323;52.124;6.018;2022-12-18T02:26:41;37.45;;;17.73;;
47599;SDS011;33323;52.124;6.018;2022-12-18T02:29:21;41.63;;;18.27;;
47599;SDS011;33323;52.124;6.018;2022-12-18T02:31:59;43.47;;;18.27;;
47599;SDS011;33323;52.124;6.018;2022-12-18T02:34:30;37.20;;;16.98;;
47599;SDS011;33323;52.124;6.018;2022-12-18T02:37:02;34.63;;;15.98;;
47599;SDS011;33323;52.124;6.018;2022-12-18T02:39:36;46.42;;;19.05;;
47599;SDS011;33323;52.124;6.018;2022-12-18T02:42:10;33.97;;;17.60;;
47599;SDS011;33323;52.124;6.018;2022-12-18T02:44:46;39.05;;;17.20;;
47599;SDS011;33323;52.124;6.018;2022-12-18T02:47:20;33.92;;;16.20;;
47599;SDS011;33323;52.124;6.018;2022-12-18T02:52:37;41.83;;;17.27;;
47599;SDS011;33323;52.124;6.018;2022-12-18T02:58:19;38.92;;;19.23;;
47599;SDS011;33323;52.124;6.018;2022-12-18T03:01:30;36.03;;;16.67;;
47599;SDS011;33323;52.124;6.018;2022-12-18T03:04:21;33.38;;;15.32;;
47599;SDS011;33323;52.124;6.018;2022-12-18T03:07:09;38.60;;;15.50;;
47599;SDS011;33323;52.124;6.018;2022-12-18T03:09:43;37.80;;;15.40;;
47599;SDS011;33323;52.124;6.018;2022-12-18T03:12:16;39.38;;;16.70;;
47599;SDS011;33323;52.124;6.018;2022-12-18T03:17:44;35.65;;;14.43;;
47599;SDS011;33323;52.124;6.018;2022-12-18T03:22:49;34.13;;;13.73;;
47599;SDS011;33323;52.124;6.018;2022-12-18T03:27:54;33.40;;;12.48;;
47599;SDS011;33323;52.124;6.018;2022-12-18T03:30:25;31.38;;;15.23;;
47599;SDS011;33323;52.124;6.018;2022-12-18T03:32:58;37.45;;;14.55;;
47599;SDS011;33323;52.124;6.018;2022-12-18T03:35:47;32.40;;;13.48;;
47599;SDS011;33323;52.124;6.018;2022-12-18T03:38:16;32.53;;;13.90;;
47599;SDS011;33323;52.124;6.018;2022-12-18T03:44:19;26.65;;;12.27;;
47599;SDS011;33323;52.124;6.018;2022-12-18T03:46:55;28.48;;;13.90;;
47599;SDS011;33323;52.124;6.018;2022-12-18T03:52:46;25.60;;;11.98;;
47599;SDS011;33323;52.124;6.018;2022-12-18T03:55:19;25.45;;;11.55;;
47599;SDS011;33323;52.124;6.018;2022-12-18T03:57:54;31.98;;;13.23;;
47599;SDS011;33323;52.124;6.018;2022-12-18T04:00:23;26.85;;;12.50;;
47599;SDS011;33323;52.124;6.018;2022-12-18T04:02:57;25.30;;;10.18;;
47599;SDS011;33323;52.124;6.018;2022-12-18T04:05:34;35.15;;;12.80;;
47599;SDS011;33323;52.124;6.018;2022-12-18T04:08:03;24.42;;;12.55;;
47599;SDS011;33323;52.124;6.018;2022-12-18T04:10:35;24.88;;;12.05;;
47599;SDS011;33323;52.124;6.018;2022-12-18T04:13:02;22.42;;;11.57;;
47599;SDS011;33323;52.124;6.018;2022-12-18T04:15:29;25.90;;;11.52;;
47599;SDS011;33323;52.124;6.018;2022-12-18T04:18:02;24.92;;;11.57;;
47599;SDS011;33323;52.124;6.018;2022-12-18T04:20:37;28.05;;;13.25;;
47599;SDS011;33323;52.124;6.018;2022-12-18T04:23:04;28.80;;;13.60;;
47599;SDS011;33323;52.124;6.018;2022-12-18T04:25:32;23.15;;;9.77;;
47599;SDS011;33323;52.124;6.018;2022-12-18T04:28:08;20.40;;;9.77;;
47599;SDS011;33323;52.124;6.018;2022-12-18T04:30:37;33.13;;;12.48;;
47599;SDS011;33323;52.124;6.018;2022-12-18T04:33:08;27.20;;;11.25;;
47599;SDS011;33323;52.124;6.018;2022-12-18T04:35:38;23.27;;;10.75;;
47599;SDS011;33323;52.124;6.018;2022-12-18T04:38:07;22.20;;;11.00;;
47599;SDS011;33323;52.124;6.018;2022-12-18T04:40:34;20.77;;;11.40;;
47599;SDS011;33323;52.124;6.018;2022-12-18T04:43:09;27.05;;;13.20;;
47599;SDS011;33323;52.124;6.018;2022-12-18T04:45:37;24.70;;;12.15;;
47599;SDS011;33323;52.124;6.018;2022-12-18T04:48:05;21.02;;;10.20;;
47599;SDS011;33323;52.124;6.018;2022-12-18T04:50:32;20.10;;;10.57;;
47599;SDS011;33323;52.124;6.018;2022-12-18T04:53:00;21.40;;;10.13;;
47599;SDS011;33323;52.124;6.018;2022-12-18T04:55:27;23.00;;;11.43;;
47599;SDS011;33323;52.124;6.018;2022-12-18T04:57:54;25.35;;;11.43;;
47599;SDS011;33323;52.124;6.018;2022-12-18T05:00:21;22.77;;;12.63;;
47599;SDS011;33323;52.124;6.018;2022-12-18T05:02:48;31.50;;;12.02;;
47599;SDS011;33323;52.124;6.018;2022-12-18T05:05:16;23.60;;;11.70;;
47599;SDS011;33323;52.124;6.018;2022-12-18T05:07:43;21.02;;;10.32;;
47599;SDS011;33323;52.124;6.018;2022-12-18T05:10:11;22.55;;;11.80;;
47599;SDS011;33323;52.124;6.018;2022-12-18T05:12:38;28.67;;;13.07;;
47599;SDS011;33323;52.124;6.018;2022-12-18T05:15:26;22.92;;;11.70;;
47599;SDS011;33323;52.124;6.018;2022-12-18T05:17:58;27.65;;;11.32;;
47599;SDS011;33323;52.124;6.018;2022-12-18T05:20:26;23.20;;;11.50;;
47599;SDS011;33323;52.124;6.018;2022-12-18T05:22:54;30.50;;;11.63;;
47599;SDS011;33323;52.124;6.018;2022-12-18T05:25:22;28.50;;;11.60;;
47599;SDS011;33323;52.124;6.018;2022-12-18T05:27:49;28.10;;;13.77;;
47599;SDS011;33323;52.124;6.018;2022-12-18T05:30:17;28.30;;;12.98;;
47599;SDS011;33323;52.124;6.018;2022-12-18T05:32:43;27.73;;;10.73;;
47599;SDS011;33323;52.124;6.018;2022-12-18T05:35:10;22.95;;;11.38;;
47599;SDS011;33323;52.124;6.018;2022-12-18T05:37:37;21.52;;;11.20;;
47599;SDS011;33323;52.124;6.018;2022-12-18T05:40:09;21.38;;;10.40;;
47599;SDS011;33323;52.124;6.018;2022-12-18T05:42:37;23.98;;;10.93;;
47599;SDS011;33323;52.124;6.018;2022-12-18T05:45:04;27.45;;;10.75;;
47599;SDS011;33323;52.124;6.018;2022-12-18T05:47:32;22.70;;;11.20;;
47599;SDS011;33323;52.124;6.018;2022-12-18T05:49:59;26.25;;;11.95;;
47599;SDS011;33323;52.124;6.018;2022-12-18T05:52:26;23.52;;;11.40;;
47599;SDS011;33323;52.124;6.018;2022-12-18T05:54:53;22.17;;;10.48;;
47599;SDS011;33323;52.124;6.018;2022-12-18T05:57:20;25.15;;;10.15;;
47599;SDS011;33323;52.124;6.018;2022-12-18T05:59:47;29.75;;;12.27;;
47599;SDS011;33323;52.124;6.018;2022-12-18T06:02:14;24.30;;;12.18;;
47599;SDS011;33323;52.124;6.018;2022-12-18T06:04:41;27.00;;;10.77;;
47599;SDS011;33323;52.124;6.018;2022-12-18T06:07:08;27.45;;;13.07;;
47599;SDS011;33323;52.124;6.018;2022-12-18T06:09:35;27.77;;;14.07;;
47599;SDS011;33323;52.124;6.018;2022-12-18T06:12:02;33.22;;;12.20;;
47599;SDS011;33323;52.124;6.018;2022-12-18T06:14:29;31.50;;;11.93;;
47599;SDS011;33323;52.124;6.018;2022-12-18T06:16:56;27.88;;;11.88;;
47599;SDS011;33323;52.124;6.018;2022-12-18T06:19:23;24.88;;;11.30;;
47599;SDS011;33323;52.124;6.018;2022-12-18T06:21:50;25.88;;;11.73;;
47599;SDS011;33323;52.124;6.018;2022-12-18T06:24:17;30.92;;;11.70;;
47599;SDS011;33323;52.124;6.018;2022-12-18T06:26:44;25.85;;;11.80;;
47599;SDS011;33323;52.124;6.018;2022-12-18T06:29:11;24.00;;;12.13;;
47599;SDS011;33323;52.124;6.018;2022-12-18T06:31:38;20.75;;;11.27;;
47599;SDS011;33323;52.124;6.018;2022-12-18T06:34:05;22.02;;;11.02;;
47599;SDS011;33323;52.124;6.018;2022-12-18T06:36:32;22.20;;;10.88;;
47599;SDS011;33323;52.124;6.018;2022-12-18T06:38:59;29.10;;;13.18;;
47599;SDS011;33323;52.124;6.018;2022-12-18T06:41:27;23.55;;;11.60;;
47599;SDS011;33323;52.124;6.018;2022-12-18T06:43:54;23.35;;;12.02;;
47599;SDS011;33323;52.124;6.018;2022-12-18T06:46:25;29.08;;;12.18;;
47599;SDS011;33323;52.124;6.018;2022-12-18T06:48:52;23.63;;;11.98;;
47599;SDS011;33323;52.124;6.018;2022-12-18T06:51:20;32.75;;;13.52;;
47599;SDS011;33323;52.124;6.018;2022-12-18T06:53:48;27.45;;;13.23;;
47599;SDS011;33323;52.124;6.018;2022-12-18T06:56:16;31.08;;;13.38;;
47599;SDS011;33323;52.124;6.018;2022-12-18T06:58:43;28.35;;;13.18;;
47599;SDS011;33323;52.124;6.018;2022-12-18T07:01:11;33.92;;;11.98;;
47599;SDS011;33323;52.124;6.018;2022-12-18T07:03:39;26.80;;;11.38;;
47599;SDS011;33323;52.124;6.018;2022-12-18T07:06:16;24.88;;;12.57;;
47599;SDS011;33323;52.124;6.018;2022-12-18T07:08:46;32.35;;;13.82;;
47599;SDS011;33323;52.124;6.018;2022-12-18T07:11:15;31.27;;;13.63;;
47599;SDS011;33323;52.124;6.018;2022-12-18T07:13:43;29.83;;;12.65;;
47599;SDS011;33323;52.124;6.018;2022-12-18T07:16:11;23.85;;;11.40;;
47599;SDS011;33323;52.124;6.018;2022-12-18T07:18:50;27.52;;;12.20;;
47599;SDS011;33323;52.124;6.018;2022-12-18T07:21:17;24.58;;;12.27;;
47599;SDS011;33323;52.124;6.018;2022-12-18T07:23:45;24.70;;;12.25;;
47599;SDS011;33323;52.124;6.018;2022-12-18T07:26:15;29.35;;;13.05;;
47599;SDS011;33323;52.124;6.018;2022-12-18T07:28:45;27.90;;;12.73;;
47599;SDS011;33323;52.124;6.018;2022-12-18T07:31:21;25.45;;;12.77;;
47599;SDS011;33323;52.124;6.018;2022-12-18T07:33:48;29.02;;;12.52;;
47599;SDS011;33323;52.124;6.018;2022-12-18T07:36:17;25.35;;;12.05;;
47599;SDS011;33323;52.124;6.018;2022-12-18T07:38:48;22.92;;;11.00;;
47599;SDS011;33323;52.124;6.018;2022-12-18T07:41:16;27.50;;;12.85;;
47599;SDS011;33323;52.124;6.018;2022-12-18T07:43:43;25.67;;;13.13;;
47599;SDS011;33323;52.124;6.018;2022-12-18T07:46:11;27.08;;;13.85;;
47599;SDS011;33323;52.124;6.018;2022-12-18T07:48:40;26.83;;;12.90;;
47599;SDS011;33323;52.124;6.018;2022-12-18T07:51:10;31.33;;;14.00;;
47599;SDS011;33323;52.124;6.018;2022-12-18T07:53:37;25.63;;;12.68;;
47599;SDS011;33323;52.124;6.018;2022-12-18T07:56:07;27.05;;;12.80;;
47599;SDS011;33323;52.124;6.018;2022-12-18T07:58:53;28.50;;;14.35;;
47599;SDS011;33323;52.124;6.018;2022-12-18T08:01:21;26.35;;;12.23;;
47599;SDS011;33323;52.124;6.018;2022-12-18T08:03:48;29.63;;;12.40;;
47599;SDS011;33323;52.124;6.018;2022-12-18T08:06:17;26.85;;;12.75;;
47599;SDS011;33323;52.124;6.018;2022-12-18T08:08:53;33.75;;;12.38;;
47599;SDS011;33323;52.124;6.018;2022-12-18T08:11:22;28.88;;;13.00;;
47599;SDS011;33323;52.124;6.018;2022-12-18T08:13:51;25.90;;;13.05;;
47599;SDS011;33323;52.124;6.018;2022-12-18T08:16:19;27.08;;;13.15;;
47599;SDS011;33323;52.124;6.018;2022-12-18T08:18:47;22.15;;;11.55;;
47599;SDS011;33323;52.124;6.018;2022-12-18T08:23:51;25.15;;;12.82;;
47599;SDS011;33323;52.124;6.018;2022-12-18T08:26:20;28.27;;;12.35;;
47599;SDS011;33323;52.124;6.018;2022-12-18T08:28:48;26.00;;;12.65;;
47599;SDS011;33323;52.124;6.018;2022-12-18T08:31:17;28.17;;;12.80;;
47599;SDS011;33323;52.124;6.018;2022-12-18T08:33:47;28.95;;;13.57;;
47599;SDS011;33323;52.124;6.018;2022-12-18T08:36:16;34.03;;;12.90;;
47599;SDS011;33323;52.124;6.018;2022-12-18T08:38:43;25.50;;;11.95;;
47599;SDS011;33323;52.124;6.018;2022-12-18T08:41:11;30.30;;;14.00;;
47599;SDS011;33323;52.124;6.018;2022-12-18T08:43:40;28.90;;;12.00;;
47599;SDS011;33323;52.124;6.018;2022-12-18T08:46:32;26.02;;;12.05;;
47599;SDS011;33323;52.124;6.018;2022-12-18T08:49:03;21.73;;;10.13;;
47599;SDS011;33323;52.124;6.018;2022-12-18T08:51:31;28.65;;;12.93;;
47599;SDS011;33323;52.124;6.018;2022-12-18T08:53:58;33.55;;;11.68;;
47599;SDS011;33323;52.124;6.018;2022-12-18T08:56:25;22.50;;;10.73;;
47599;SDS011;33323;52.124;6.018;2022-12-18T08:58:53;20.80;;;10.48;;
47599;SDS011;33323;52.124;6.018;2022-12-18T09:01:21;12.27;;;6.88;;
47599;SDS011;33323;52.124;6.018;2022-12-18T09:03:49;19.75;;;10.73;;
47599;SDS011;33323;52.124;6.018;2022-12-18T09:06:17;28.33;;;9.90;;
47599;SDS011;33323;52.124;6.018;2022-12-18T09:08:45;21.40;;;9.70;;
47599;SDS011;33323;52.124;6.018;2022-12-18T09:11:14;20.10;;;9.93;;
47599;SDS011;33323;52.124;6.018;2022-12-18T09:13:47;28.10;;;11.57;;
47599;SDS011;33323;52.124;6.018;2022-12-18T09:16:15;25.95;;;10.45;;
47599;SDS011;33323;52.124;6.018;2022-12-18T09:18:42;28.33;;;11.20;;
47599;SDS011;33323;52.124;6.018;2022-12-18T09:21:11;23.05;;;10.77;;
47599;SDS011;33323;52.124;6.018;2022-12-18T09:23:41;24.15;;;10.68;;
47599;SDS011;33323;52.124;6.018;2022-12-18T09:26:08;20.02;;;9.68;;
47599;SDS011;33323;52.124;6.018;2022-12-18T09:28:35;23.35;;;11.20;;
47599;SDS011;33323;52.124;6.018;2022-12-18T09:31:04;15.30;;;6.38;;
47599;SDS011;33323;52.124;6.018;2022-12-18T09:33:34;10.55;;;6.00;;
47599;SDS011;33323;52.124;6.018;2022-12-18T09:36:03;22.90;;;7.95;;
47599;SDS011;33323;52.124;6.018;2022-12-18T09:38:33;19.65;;;9.10;;
47599;SDS011;33323;52.124;6.018;2022-12-18T09:41:25;18.75;;;8.85;;
47599;SDS011;33323;52.124;6.018;2022-12-18T09:44:21;15.63;;;8.25;;
47599;SDS011;33323;52.124;6.018;2022-12-18T09:46:55;21.67;;;8.98;;
47599;SDS011;33323;52.124;6.018;2022-12-18T09:49:29;10.32;;;4.05;;
47599;SDS011;33323;52.124;6.018;2022-12-18T09:52:05;8.68;;;4.68;;
47599;SDS011;33323;52.124;6.018;2022-12-18T10:00:21;8.77;;;4.40;;
47599;SDS011;33323;52.124;6.018;2022-12-18T10:02:55;9.07;;;4.00;;
47599;SDS011;33323;52.124;6.018;2022-12-18T10:10:56;23.67;;;9.20;;
47599;SDS011;33323;52.124;6.018;2022-12-18T10:13:35;18.63;;;9.93;;
47599;SDS011;33323;52.124;6.018;2022-12-18T10:27:28;14.25;;;6.38;;
47599;SDS011;33323;52.124;6.018;2022-12-18T10:29:58;16.50;;;8.38;;
47599;SDS011;33323;52.124;6.018;2022-12-18T10:32:27;21.70;;;9.30;;
47599;SDS011;33323;52.124;6.018;2022-12-18T10:34:57;19.45;;;6.70;;
47599;SDS011;33323;52.124;6.018;2022-12-18T10:37:28;8.10;;;3.97;;
47599;SDS011;33323;52.124;6.018;2022-12-18T10:42:33;9.48;;;4.05;;
47599;SDS011;33323;52.124;6.018;2022-12-18T10:45:02;13.98;;;6.55;;
47599;SDS011;33323;52.124;6.018;2022-12-18T10:47:36;11.48;;;6.40;;
47599;SDS011;33323;52.124;6.018;2022-12-18T10:50:20;7.78;;;3.85;;
47599;SDS011;33323;52.124;6.018;2022-12-18T10:53:24;12.93;;;6.07;;
47599;SDS011;33323;52.124;6.018;2022-12-18T10:55:55;11.85;;;6.47;;
47599;SDS011;33323;52.124;6.018;2022-12-18T11:01:08;7.70;;;3.58;;
47599;SDS011;33323;52.124;6.018;2022-12-18T11:06:27;8.40;;;4.53;;
47599;SDS011;33323;52.124;6.018;2022-12-18T11:11:39;9.18;;;4.95;;
47599;SDS011;33323;52.124;6.018;2022-12-18T11:14:12;13.98;;;6.97;;
47599;SDS011;33323;52.124;6.018;2022-12-18T11:16:46;12.13;;;7.00;;
47599;SDS011;33323;52.124;6.018;2022-12-18T11:19:36;13.05;;;6.40;;
47599;SDS011;33323;52.124;6.018;2022-12-18T11:28:02;16.73;;;8.95;;
47599;SDS011;33323;52.124;6.018;2022-12-18T11:30:49;11.88;;;6.85;;
47599;SDS011;33323;52.124;6.018;2022-12-18T11:36:55;10.98;;;5.63;;
47599;SDS011;33323;52.124;6.018;2022-12-18T11:39:36;14.18;;;7.43;;
47599;SDS011;33323;52.124;6.018;2022-12-18T11:47:26;13.25;;;7.22;;
47599;SDS011;33323;52.124;6.018;2022-12-18T11:50:01;15.98;;;7.63;;
47599;SDS011;33323;52.124;6.018;2022-12-18T11:52:37;8.82;;;4.68;;
47599;SDS011;33323;52.124;6.018;2022-12-18T11:55:21;12.55;;;7.18;;
47599;SDS011;33323;52.124;6.018;2022-12-18T11:58:00;15.90;;;5.72;;
47599;SDS011;33323;52.124;6.018;2022-12-18T12:00:46;13.88;;;7.03;;
47599;SDS011;33323;52.124;6.018;2022-12-18T12:03:38;12.75;;;7.72;;
47599;SDS011;33323;52.124;6.018;2022-12-18T12:19:00;9.90;;;4.88;;
47599;SDS011;33323;52.124;6.018;2022-12-18T12:21:59;13.23;;;5.68;;
47599;SDS011;33323;52.124;6.018;2022-12-18T12:24:59;7.20;;;4.82;;
47599;SDS011;33323;52.124;6.018;2022-12-18T12:31:16;12.35;;;4.03;;
47599;SDS011;33323;52.124;6.018;2022-12-18T12:34:11;17.83;;;7.05;;
47599;SDS011;33323;52.124;6.018;2022-12-18T12:39:58;13.13;;;6.85;;
47599;SDS011;33323;52.124;6.018;2022-12-18T12:42:49;15.65;;;7.90;;
47599;SDS011;33323;52.124;6.018;2022-12-18T12:48:31;8.10;;;4.32;;
47599;SDS011;33323;52.124;6.018;2022-12-18T12:51:19;16.30;;;6.10;;
47599;SDS011;33323;52.124;6.018;2022-12-18T12:54:26;13.60;;;6.07;;
47599;SDS011;33323;52.124;6.018;2022-12-18T12:56:57;9.15;;;4.88;;
47599;SDS011;33323;52.124;6.018;2022-12-18T13:02:39;13.55;;;6.85;;
47599;SDS011;33323;52.124;6.018;2022-12-18T13:05:14;20.02;;;6.88;;
47599;SDS011;33323;52.124;6.018;2022-12-18T13:07:53;21.35;;;7.70;;
47599;SDS011;33323;52.124;6.018;2022-12-18T13:10:30;14.95;;;7.38;;
47599;SDS011;33323;52.124;6.018;2022-12-18T13:13:09;13.43;;;6.50;;
47599;SDS011;33323;52.124;6.018;2022-12-18T13:15:47;20.08;;;7.78;;
47599;SDS011;33323;52.124;6.018;2022-12-18T13:18:19;11.43;;;7.18;;
47599;SDS011;33323;52.124;6.018;2022-12-18T13:23:32;18.20;;;6.38;;
47599;SDS011;33323;52.124;6.018;2022-12-18T13:36:55;17.90;;;8.30;;
47599;SDS011;33323;52.124;6.018;2022-12-18T13:40:06;12.82;;;5.97;;
47599;SDS011;33323;52.124;6.018;2022-12-18T13:48:17;14.95;;;5.90;;
47599;SDS011;33323;52.124;6.018;2022-12-18T13:50:48;13.27;;;6.50;;
47599;SDS011;33323;52.124;6.018;2022-12-18T13:53:38;14.60;;;7.97;;
47599;SDS011;33323;52.124;6.018;2022-12-18T13:56:33;13.65;;;7.03;;
47599;SDS011;33323;52.124;6.018;2022-12-18T13:59:05;8.88;;;4.63;;
47599;SDS011;33323;52.124;6.018;2022-12-18T14:01:57;20.27;;;8.13;;
47599;SDS011;33323;52.124;6.018;2022-12-18T14:04:33;13.73;;;6.97;;
47599;SDS011;33323;52.124;6.018;2022-12-18T14:07:05;13.00;;;6.50;;
47599;SDS011;33323;52.124;6.018;2022-12-18T14:09:44;12.52;;;5.82;;
47599;SDS011;33323;52.124;6.018;2022-12-18T14:12:16;21.70;;;7.97;;
47599;SDS011;33323;52.124;6.018;2022-12-18T14:15:12;15.90;;;8.02;;
47599;SDS011;33323;52.124;6.018;2022-12-18T14:17:57;13.27;;;7.25;;
47599;SDS011;33323;52.124;6.018;2022-12-18T14:20:28;9.52;;;5.57;;
47599;SDS011;33323;52.124;6.018;2022-12-18T14:22:58;6.50;;;3.75;;
47599;SDS011;33323;52.124;6.018;2022-12-18T14:25:27;16.50;;;7.88;;
47599;SDS011;33323;52.124;6.018;2022-12-18T14:30:41;17.02;;;7.97;;
47599;SDS011;33323;52.124;6.018;2022-12-18T14:33:12;13.90;;;7.80;;
47599;SDS011;33323;52.124;6.018;2022-12-18T14:35:53;16.38;;;7.28;;
47599;SDS011;33323;52.124;6.018;2022-12-18T14:41:10;19.40;;;8.48;;
47599;SDS011;33323;52.124;6.018;2022-12-18T14:43:39;16.02;;;8.70;;
47599;SDS011;33323;52.124;6.018;2022-12-18T14:49:04;7.78;;;3.78;;
47599;SDS011;33323;52.124;6.018;2022-12-18T14:51:47;18.75;;;7.65;;
47599;SDS011;33323;52.124;6.018;2022-12-18T14:54:20;15.45;;;8.05;;
47599;SDS011;33323;52.124;6.018;2022-12-18T14:59:26;12.63;;;6.50;;
47599;SDS011;33323;52.124;6.018;2022-12-18T15:05:00;16.40;;;7.72;;
47599;SDS011;33323;52.124;6.018;2022-12-18T15:07:42;8.85;;;5.97;;
47599;SDS011;33323;52.124;6.018;2022-12-18T15:12:44;15.05;;;7.10;;
47599;SDS011;33323;52.124;6.018;2022-12-18T15:23:28;6.15;;;3.67;;
47599;SDS011;33323;52.124;6.018;2022-12-18T15:26:17;18.85;;;9.25;;
47599;SDS011;33323;52.124;6.018;2022-12-18T15:28:51;8.88;;;5.07;;
47599;SDS011;33323;52.124;6.018;2022-12-18T15:36:25;15.40;;;7.45;;
47599;SDS011;33323;52.124;6.018;2022-12-18T15:38:53;15.57;;;8.15;;
47599;SDS011;33323;52.124;6.018;2022-12-18T15:41:32;16.83;;;8.77;;
47599;SDS011;33323;52.124;6.018;2022-12-18T15:44:01;14.50;;;8.25;;
47599;SDS011;33323;52.124;6.018;2022-12-18T15:46:29;18.33;;;6.40;;
47599;SDS011;33323;52.124;6.018;2022-12-18T15:48:57;15.50;;;7.70;;
47599;SDS011;33323;52.124;6.018;2022-12-18T15:51:37;11.68;;;5.80;;
47599;SDS011;33323;52.124;6.018;2022-12-18T15:54:05;11.65;;;6.88;;
47599;SDS011;33323;52.124;6.018;2022-12-18T15:56:39;15.40;;;8.77;;
47599;SDS011;33323;52.124;6.018;2022-12-18T15:59:25;15.93;;;7.55;;
47599;SDS011;33323;52.124;6.018;2022-12-18T16:01:52;17.35;;;8.52;;
47599;SDS011;33323;52.124;6.018;2022-12-18T16:04:20;15.10;;;7.35;;
47599;SDS011;33323;52.124;6.018;2022-12-18T16:06:49;14.75;;;7.85;;
47599;SDS011;33323;52.124;6.018;2022-12-18T16:09:37;14.40;;;7.70;;
47599;SDS011;33323;52.124;6.018;2022-12-18T16:12:06;19.35;;;9.07;;
47599;SDS011;33323;52.124;6.018;2022-12-18T16:14:40;18.02;;;8.73;;
47599;SDS011;33323;52.124;6.018;2022-12-18T16:17:09;21.67;;;10.50;;
47599;SDS011;33323;52.124;6.018;2022-12-18T16:19:37;18.73;;;8.73;;
47599;SDS011;33323;52.124;6.018;2022-12-18T16:22:14;16.98;;;7.80;;
47599;SDS011;33323;52.124;6.018;2022-12-18T16:24:49;20.77;;;10.07;;
47599;SDS011;33323;52.124;6.018;2022-12-18T16:27:17;19.48;;;8.35;;
47599;SDS011;33323;52.124;6.018;2022-12-18T16:29:45;20.65;;;9.65;;
47599;SDS011;33323;52.124;6.018;2022-12-18T16:32:13;22.35;;;9.27;;
47599;SDS011;33323;52.124;6.018;2022-12-18T16:34:45;20.92;;;10.32;;
47599;SDS011;33323;52.124;6.018;2022-12-18T16:37:13;13.52;;;7.15;;
47599;SDS011;33323;52.124;6.018;2022-12-18T16:39:42;17.15;;;8.30;;
47599;SDS011;33323;52.124;6.018;2022-12-18T16:42:11;15.57;;;7.97;;
47599;SDS011;33323;52.124;6.018;2022-12-18T16:47:14;12.38;;;7.03;;
47599;SDS011;33323;52.124;6.018;2022-12-18T16:49:42;12.45;;;5.20;;
47599;SDS011;33323;52.124;6.018;2022-12-18T16:52:11;12.70;;;7.10;;
47599;SDS011;33323;52.124;6.018;2022-12-18T16:54:39;16.40;;;8.25;;
47599;SDS011;33323;52.124;6.018;2022-12-18T16:57:06;18.65;;;8.68;;
47599;SDS011;33323;52.124;6.018;2022-12-18T16:59:35;11.45;;;5.93;;
47599;SDS011;33323;52.124;6.018;2022-12-18T17:02:03;9.80;;;3.78;;
47599;SDS011;33323;52.124;6.018;2022-12-18T17:04:30;17.48;;;7.57;;
47599;SDS011;33323;52.124;6.018;2022-12-18T17:06:57;21.02;;;11.00;;
47599;SDS011;33323;52.124;6.018;2022-12-18T17:09:24;13.02;;;6.10;;
47599;SDS011;33323;52.124;6.018;2022-12-18T17:11:52;15.18;;;6.28;;
47599;SDS011;33323;52.124;6.018;2022-12-18T17:14:20;15.45;;;8.48;;
47599;SDS011;33323;52.124;6.018;2022-12-18T17:16:50;11.73;;;5.35;;
47599;SDS011;33323;52.124;6.018;2022-12-18T17:19:38;9.95;;;4.65;;
47599;SDS011;33323;52.124;6.018;2022-12-18T17:22:05;16.45;;;8.20;;
47599;SDS011;33323;52.124;6.018;2022-12-18T17:24:33;8.85;;;5.40;;
47599;SDS011;33323;52.124;6.018;2022-12-18T17:27:01;14.80;;;7.25;;
47599;SDS011;33323;52.124;6.018;2022-12-18T17:29:29;16.85;;;7.97;;
47599;SDS011;33323;52.124;6.018;2022-12-18T17:31:56;24.00;;;10.73;;
47599;SDS011;33323;52.124;6.018;2022-12-18T17:34:25;22.08;;;10.00;;
47599;SDS011;33323;52.124;6.018;2022-12-18T17:36:53;12.50;;;5.75;;
47599;SDS011;33323;52.124;6.018;2022-12-18T17:39:20;14.98;;;7.85;;
47599;SDS011;33323;52.124;6.018;2022-12-18T17:41:47;15.85;;;7.63;;
47599;SDS011;33323;52.124;6.018;2022-12-18T17:44:15;17.92;;;8.23;;
47599;SDS011;33323;52.124;6.018;2022-12-18T17:46:43;5.35;;;2.72;;